Time;durP1;ratioP1;P1;durP2;ratioP2;P2;SDS_P1;SDS_P2;PMS_P1;PMS_P2;Temp;Humidity;BMP_temperature;BMP_pressure;BME280_temperature;BME280_humidity;BME280_pressure;Samples;Min_cycle;Max_cycle;Signal;HPM_P1;HPM_P2
2022/10/12 00:00:58;;;;;;;73.65;33.75;;;;;;;4.32;78.34;99559.65;1671059;85;25713;-57
2022/10/12 00:03:25;;;;;;;76.17;33.98;;;;;;;4.18;78.65;99558.37;1671142;85;25636;-60
2022/10/12 00:06:10;;;;;;;69.55;33.10;;;;;;;4.13;79.22;99561.83;1671096;85;25739;-59
2022/10/12 00:08:39;;;;;;;68.05;31.97;;;;;;;4.17;79.41;99562.97;1670909;85;25461;-57
2022/10/12 00:11:07;;;;;;;68.92;32.85;;;;;;;4.18;79.20;99553.78;1671058;85;27480;-61
2022/10/12 00:13:34;;;;;;;72.62;32.17;;;;;;;4.18;79.33;99555.66;1670958;85;25862;-57
2022/10/12 00:16:06;;;;;;;81.35;33.85;;;;;;;4.18;79.24;99557.02;1671109;85;25707;-57
2022/10/12 00:18:34;;;;;;;75.37;32.48;;;;;;;4.18;79.11;99551.06;1670977;85;25655;-57
2022/10/12 00:21:10;;;;;;;73.33;32.83;;;;;;;4.11;79.23;99558.01;1671097;85;25501;-57
2022/10/12 00:23:38;;;;;;;83.47;35.23;;;;;;;4.11;79.54;99554.46;1671533;85;27551;-57
2022/10/12 00:26:11;;;;;;;78.40;36.00;;;;;;;4.19;79.67;99554.58;1671509;85;25715;-57
2022/10/12 00:28:38;;;;;;;76.25;33.45;;;;;;;4.26;79.41;99549.27;1671432;85;25504;-56
2022/10/12 00:31:12;;;;;;;74.67;33.40;;;;;;;4.14;79.26;99550.73;1671470;85;25873;-57
2022/10/12 00:33:39;;;;;;;85.62;35.33;;;;;;;4.08;79.50;99557.14;1671483;85;25655;-56
2022/10/12 00:36:18;;;;;;;79.90;34.73;;;;;;;4.04;79.58;99557.89;1671490;85;27476;-57
2022/10/12 00:38:45;;;;;;;73.92;34.03;;;;;;;3.93;79.89;99559.62;1671417;85;25741;-57
2022/10/12 00:41:14;;;;;;;71.17;31.25;;;;;;;3.80;80.08;99548.02;1671408;85;25741;-57
2022/10/12 00:43:42;;;;;;;66.80;30.25;;;;;;;3.74;80.07;99551.20;1671139;85;25962;-56
2022/10/12 00:46:38;;;;;;;63.17;30.68;;;;;;;3.69;80.24;99548.42;1671511;85;25457;-57
2022/10/12 00:49:23;;;;;;;62.25;30.20;;;;;;;3.68;80.20;99547.31;1671408;85;27470;-56
2022/10/12 00:52:03;;;;;;;60.45;31.25;;;;;;;3.66;80.13;99548.91;1671130;85;25626;-56
2022/10/12 00:54:37;;;;;;;62.70;32.03;;;;;;;3.66;80.16;99544.84;1671385;85;25491;-56
2022/10/12 00:57:06;;;;;;;60.12;29.50;;;;;;;3.77;80.69;99551.23;1671488;85;25661;-57
2022/10/12 00:59:49;;;;;;;61.23;30.15;;;;;;;3.85;80.07;99548.64;1671425;85;25606;-57
2022/10/12 01:02:16;;;;;;;58.28;28.57;;;;;;;3.93;80.11;99549.60;1670354;85;28318;-58
2022/10/12 01:04:44;;;;;;;61.10;29.42;;;;;;;3.91;79.39;99549.57;1671691;85;25426;-59
2022/10/12 01:07:11;;;;;;;59.03;29.20;;;;;;;3.81;79.68;99542.91;1671502;85;25496;-56
2022/10/12 01:09:37;;;;;;;56.23;28.40;;;;;;;3.80;79.89;99543.96;1671334;85;25750;-57
2022/10/12 01:12:06;;;;;;;56.63;28.52;;;;;;;3.79;79.72;99546.39;1671408;85;25658;-56
2022/10/12 01:14:32;;;;;;;62.25;30.05;;;;;;;3.75;80.02;99546.61;1671592;85;28281;-57
2022/10/12 01:17:37;;;;;;;60.75;30.17;;;;;;;3.75;79.79;99547.41;1671495;85;25477;-60
2022/10/12 01:20:32;;;;;;;66.12;30.45;;;;;;;3.71;79.69;99541.40;1671301;85;25691;-57
2022/10/12 01:23:40;;;;;;;76.85;31.55;;;;;;;3.64;79.80;99542.38;1671562;85;26518;-58
2022/10/12 01:26:34;;;;;;;78.90;33.73;;;;;;;3.62;79.81;99549.09;1671295;85;25671;-56
2022/10/12 01:29:39;;;;;;;61.65;29.23;;;;;;;3.56;79.78;99543.30;1647565;87;27427;-59
2022/10/12 01:32:23;;;;;;;60.65;28.00;;;;;;;3.53;79.94;99539.20;1647341;87;25659;-59
2022/10/12 01:35:19;;;;;;;57.13;27.07;;;;;;;3.50;79.88;99543.22;1647714;87;25805;-59
2022/10/12 01:38:02;;;;;;;61.60;28.52;;;;;;;3.48;80.05;99532.31;1647306;87;25780;-55
2022/10/12 01:40:39;;;;;;;50.80;25.92;;;;;;;3.47;79.98;99539.65;1647575;87;25675;-56
2022/10/12 01:43:07;;;;;;;57.38;26.60;;;;;;;3.46;80.42;99539.38;1647542;87;27653;-56
2022/10/12 01:45:33;;;;;;;56.80;28.95;;;;;;;3.50;80.11;99535.62;1647659;87;25665;-56
2022/10/12 01:48:02;;;;;;;62.98;29.57;;;;;;;3.38;79.98;99540.59;1647566;87;25558;-56
2022/10/12 01:50:40;;;;;;;61.40;29.67;;;;;;;3.31;80.39;99539.09;1647245;85;25781;-56
2022/10/12 01:53:17;;;;;;;67.05;31.90;;;;;;;3.31;80.28;99540.45;1645138;87;25501;-57
2022/10/12 01:56:04;;;;;;;70.00;31.23;;;;;;;3.25;80.27;99538.98;1647367;87;27282;-57
2022/10/12 01:59:03;;;;;;;75.03;33.63;;;;;;;3.26;80.37;99541.17;1630930;88;25699;-56
2022/10/12 02:01:40;;;;;;;70.87;31.30;;;;;;;3.33;80.51;99541.84;1630697;88;25743;-56
2022/10/12 02:04:11;;;;;;;64.42;29.67;;;;;;;3.36;80.20;99540.52;1630829;88;26649;-56
2022/10/12 02:06:43;;;;;;;;;;;;;;;3.42;80.07;99541.45;1651621;86;25557;-56
2022/10/12 02:09:25;;;;;;;58.30;27.42;;;;;;;3.46;80.08;99535.30;1642148;86;27424;-59
2022/10/12 02:11:56;;;;;;;75.20;32.53;;;;;;;3.50;79.87;99544.58;1629364;88;25586;-57
2022/10/12 02:14:27;;;;;;;81.47;36.80;;;;;;;3.48;79.60;99545.87;1629406;88;25744;-56
2022/10/12 02:17:00;;;;;;;77.82;33.18;;;;;;;3.45;79.84;99540.41;1628612;88;25763;-56
2022/10/12 02:19:31;;;;;;;65.85;30.90;;;;;;;3.44;79.57;99540.14;1607861;88;25824;-56
2022/10/12 02:22:01;;;;;;;62.33;29.40;;;;;;;3.28;79.33;99541.73;1629244;88;29471;-56
2022/10/12 02:24:31;;;;;;;65.23;31.27;;;;;;;3.13;79.85;99542.28;1656301;86;25435;-57
2022/10/12 02:26:59;;;;;;;70.22;32.95;;;;;;;3.06;80.11;99541.61;1655516;86;25640;-56
2022/10/12 02:29:38;;;;;;;61.18;29.00;;;;;;;3.00;80.35;99544.21;1672045;85;25756;-57
2022/10/12 02:32:27;;;;;;;64.65;29.40;;;;;;;3.00;80.50;99544.77;1653397;86;25664;-57
2022/10/12 02:35:14;;;;;;;58.50;27.37;;;;;;;3.00;80.15;99552.34;1646064;87;27438;-56
2022/10/12 02:37:49;;;;;;;62.95;27.70;;;;;;;2.96;80.24;99547.12;1671234;85;25633;-56
2022/10/12 02:40:21;;;;;;;52.98;26.20;;;;;;;2.97;80.37;99546.59;1662831;85;25681;-57
2022/10/12 02:43:01;;;;;;;54.65;26.02;;;;;;;2.97;80.44;99550.66;1664298;86;26095;-56
2022/10/12 02:45:36;;;;;;;57.65;25.92;;;;;;;3.04;80.68;99553.20;1663637;85;25665;-59
2022/10/12 02:48:08;;;;;;;51.10;24.87;;;;;;;3.05;80.09;99552.97;1663718;85;27402;-57
2022/10/12 02:50:42;;;;;;;57.27;25.85;;;;;;;3.01;80.51;99554.00;1675297;85;25543;-57
2022/10/12 02:53:14;;;;;;;62.43;29.65;;;;;;;3.08;80.79;99548.97;1663578;86;25703;-57
2022/10/12 02:55:59;;;;;;;59.48;28.85;;;;;;;3.11;80.60;99554.71;1663864;85;25803;-57
2022/10/12 02:58:26;;;;;;;63.02;30.82;;;;;;;3.11;80.44;99553.91;1663815;85;25644;-57
2022/10/12 03:00:52;;;;;;;62.80;31.42;;;;;;;3.05;80.53;99554.32;1664072;85;27454;-57
2022/10/12 03:03:18;;;;;;;64.15;30.10;;;;;;;3.03;80.76;99553.76;1663817;86;25603;-60
2022/10/12 03:05:45;;;;;;;65.15;31.80;;;;;;;3.03;80.56;99546.16;1663485;86;25698;-57
2022/10/12 03:08:11;;;;;;;59.90;29.70;;;;;;;2.93;80.55;99551.66;1664555;84;25805;-57
2022/10/12 03:10:37;;;;;;;66.07;28.30;;;;;;;2.83;80.72;99552.82;1689254;84;25500;-59
2022/10/12 03:13:04;;;;;;;49.18;26.10;;;;;;;2.85;80.74;99551.51;1690611;84;27461;-57
2022/10/12 03:15:30;;;;;;;49.33;24.63;;;;;;;2.79;80.62;99556.52;1688164;84;25850;-57
2022/10/12 03:17:56;;;;;;;51.73;25.77;;;;;;;2.80;80.98;99558.19;1687852;84;25445;-57
2022/10/12 03:20:23;;;;;;;54.33;25.30;;;;;;;2.87;81.01;99548.56;1688009;84;26560;-57
2022/10/12 03:22:49;;;;;;;63.08;28.83;;;;;;;2.94;80.77;99545.72;1688080;85;25398;-57
2022/10/12 03:25:15;;;;;;;58.33;27.55;;;;;;;2.97;80.57;99547.95;1688370;84;27358;-56
2022/10/12 03:27:42;;;;;;;56.58;25.55;;;;;;;2.96;80.18;99548.99;1687895;84;25666;-56
2022/10/12 03:30:10;;;;;;;54.10;26.37;;;;;;;2.94;80.42;99551.14;1688274;85;25678;-57
2022/10/12 03:32:38;;;;;;;62.40;28.15;;;;;;;2.93;80.41;99546.25;1688246;85;25779;-57
2022/10/12 03:35:06;;;;;;;62.45;27.75;;;;;;;2.94;80.31;99557.91;1687851;84;25698;-57
2022/10/12 03:37:32;;;;;;;57.25;28.95;;;;;;;2.81;80.08;99558.99;1688186;84;27438;-57
2022/10/12 03:39:58;;;;;;;62.58;27.95;;;;;;;2.72;80.61;99560.73;1688282;84;25719;-57
2022/10/12 03:42:25;;;;;;;55.40;26.87;;;;;;;2.72;80.70;99560.73;1688373;84;25607;-57
2022/10/12 03:44:51;;;;;;;50.70;25.30;;;;;;;2.63;80.52;99558.11;1688316;84;25862;-57
2022/10/12 03:47:17;;;;;;;53.75;27.02;;;;;;;2.52;80.88;99561.13;1688250;85;25674;-57
2022/10/12 03:49:44;;;;;;;55.52;27.37;;;;;;;2.44;81.14;99566.37;1688199;84;27630;-60
2022/10/12 03:52:10;;;;;;;54.83;27.60;;;;;;;2.43;81.23;99567.95;1687811;84;25681;-57
2022/10/12 03:54:36;;;;;;;52.55;26.35;;;;;;;2.48;81.13;99564.02;1687977;84;25714;-57
2022/10/12 03:57:02;;;;;;;52.78;26.57;;;;;;;2.45;81.06;99560.44;1688325;84;25911;-61
2022/10/12 03:59:28;;;;;;;59.30;27.50;;;;;;;2.46;81.08;99561.55;1688252;84;25604;-60
2022/10/12 04:01:55;;;;;;;55.85;25.70;;;;;;;2.49;81.37;99563.78;1687886;84;27455;-57
2022/10/12 04:04:21;;;;;;;56.35;25.82;;;;;;;2.59;81.31;99556.95;1687804;84;25774;-57
2022/10/12 04:06:47;;;;;;;53.45;26.62;;;;;;;2.56;81.12;99561.48;1688089;85;25627;-58
2022/10/12 04:09:13;;;;;;;58.58;28.23;;;;;;;2.47;81.33;99563.19;1684508;84;26546;-57
2022/10/12 04:11:39;;;;;;;56.58;26.40;;;;;;;2.45;81.52;99561.79;1633331;87;25630;-57
2022/10/12 04:14:06;;;;;;;57.45;27.37;;;;;;;2.44;81.76;99564.18;1633008;87;26763;-58
2022/10/12 04:16:32;;;;;;;48.65;25.15;;;;;;;2.39;81.89;99568.98;1633144;87;25617;-57
2022/10/12 04:18:58;;;;;;;50.25;27.15;;;;;;;2.33;82.28;99562.61;1633415;87;25686;-57
2022/10/12 04:21:25;;;;;;;55.80;28.95;;;;;;;2.30;82.63;99567.14;1632878;87;25842;-57
2022/10/12 04:23:51;;;;;;;56.73;27.20;;;;;;;2.30;82.60;99564.44;1633203;87;25645;-57
2022/10/12 04:26:17;;;;;;;57.53;25.80;;;;;;;2.31;82.61;99566.62;1633274;87;27866;-56
2022/10/12 04:28:43;;;;;;;49.58;25.92;;;;;;;2.33;82.78;99565.31;1632812;87;25695;-57
2022/10/12 04:31:09;;;;;;;54.23;26.33;;;;;;;2.40;82.88;99562.50;1633338;87;25628;-57
2022/10/12 04:33:35;;;;;;;50.45;23.60;;;;;;;2.52;83.23;99565.19;1632908;87;25777;-59
2022/10/12 04:36:02;;;;;;;41.60;21.40;;;;;;;2.60;83.56;99564.83;1632902;87;25702;-60
2022/10/12 04:38:28;;;;;;;39.78;20.77;;;;;;;2.57;84.07;99562.59;1633340;87;28078;-57
2022/10/12 04:40:54;;;;;;;47.70;23.15;;;;;;;2.57;84.33;99564.47;1633164;87;25767;-58
2022/10/12 04:43:20;;;;;;;47.55;24.80;;;;;;;2.58;84.33;99565.59;1633016;87;25726;-58
2022/10/12 04:45:59;;;;;;;43.28;22.93;;;;;;;2.71;84.81;99566.39;1633083;87;25669;-57
2022/10/12 04:48:26;;;;;;;41.80;20.70;;;;;;;2.72;84.22;99573.44;1633251;87;25724;-57
2022/10/12 04:50:53;;;;;;;34.03;17.12;;;;;;;2.68;84.22;99572.28;1633012;87;28427;-57
2022/10/12 04:53:19;;;;;;;33.58;19.57;;;;;;;2.65;84.13;99577.65;1632823;87;25769;-57
2022/10/12 04:55:45;;;;;;;37.65;20.08;;;;;;;2.62;84.12;99578.12;1632871;87;25660;-57
2022/10/12 04:58:12;;;;;;;30.37;17.27;;;;;;;2.62;84.25;99579.48;1633244;87;25724;-57
2022/10/12 05:00:38;;;;;;;40.73;19.50;;;;;;;2.60;84.24;99581.59;1633367;87;25488;-58
2022/10/12 05:03:05;;;;;;;36.15;20.68;;;;;;;2.54;84.34;99575.77;1633321;87;27447;-57
2022/10/12 05:05:33;;;;;;;52.20;24.32;;;;;;;2.49;84.55;99581.89;1632895;87;27102;-58
2022/10/12 05:07:59;;;;;;;55.75;25.30;;;;;;;2.54;84.92;99581.18;1633081;87;25666;-59
2022/10/12 05:10:26;;;;;;;49.83;24.65;;;;;;;2.49;84.80;99585.43;1654906;86;25956;-58
2022/10/12 05:12:52;;;;;;;45.60;24.37;;;;;;;2.49;85.07;99582.73;1671782;85;25494;-58
2022/10/12 05:15:18;;;;;;;46.55;23.92;;;;;;;2.52;85.02;99588.19;1675705;85;27670;-59
2022/10/12 05:17:45;;;;;;;44.55;22.73;;;;;;;2.57;85.23;99583.41;1675600;85;25681;-60
2022/10/12 05:20:11;;;;;;;43.68;22.20;;;;;;;2.60;84.57;99587.83;1675634;85;25519;-58
2022/10/12 05:22:38;;;;;;;39.03;21.37;;;;;;;2.58;84.34;99582.34;1676049;85;25795;-59
2022/10/12 05:25:07;;;;;;;38.73;19.32;;;;;;;2.54;84.48;99590.13;1675641;85;25696;-59
2022/10/12 05:27:33;;;;;;;40.10;21.55;;;;;;;2.53;84.86;99586.31;1675883;85;27458;-59
2022/10/12 05:30:00;;;;;;;42.00;22.75;;;;;;;2.50;84.94;99591.13;1675383;85;25703;-61
2022/10/12 05:32:26;;;;;;;28.00;15.25;;;;;;;2.49;85.16;99594.06;1675559;85;25722;-57
2022/10/12 05:34:53;;;;;;;43.17;22.10;;;;;;;2.41;85.11;99589.00;1675728;85;25690;-58
2022/10/12 05:37:20;;;;;;;44.50;23.38;;;;;;;2.35;85.21;99587.55;1675824;85;25458;-58
2022/10/12 05:39:48;;;;;;;47.48;23.15;;;;;;;2.33;85.06;99592.36;1675569;85;27381;-57
2022/10/12 05:42:15;;;;;;;49.88;26.15;;;;;;;2.36;85.33;99593.25;1669470;85;25635;-58
2022/10/12 05:44:41;;;;;;;51.68;26.48;;;;;;;2.41;85.49;99599.30;1672579;85;25726;-58
2022/10/12 05:47:07;;;;;;;195.18;84.92;;;;;;;2.49;85.48;99596.77;1671467;85;25744;-58
2022/10/12 05:49:33;;;;;;;122.60;52.45;;;;;;;2.53;85.43;99597.94;1670173;85;25700;-58
2022/10/12 05:52:00;;;;;;;58.28;28.80;;;;;;;2.60;85.49;99606.78;1670352;85;27519;-57
2022/10/12 05:54:26;;;;;;;49.60;25.32;;;;;;;2.77;85.81;99600.62;1670498;85;25829;-59
2022/10/12 05:56:53;;;;;;;46.75;24.90;;;;;;;2.88;85.52;99602.47;1670498;85;25493;-57
2022/10/12 05:59:19;;;;;;;42.08;21.33;;;;;;;2.94;85.45;99600.68;1670427;85;25820;-58
2022/10/12 06:01:45;;;;;;;36.05;20.05;;;;;;;2.93;84.92;99599.05;1670588;85;25748;-59
2022/10/12 06:04:12;;;;;;;36.48;20.08;;;;;;;2.91;85.16;99594.94;1670268;85;27523;-58
2022/10/12 06:06:39;;;;;;;35.17;19.75;;;;;;;2.88;85.20;99591.64;1670185;85;25456;-58
2022/10/12 06:09:05;;;;;;;41.98;21.62;;;;;;;2.88;85.47;99597.05;1670443;85;25689;-58
2022/10/12 06:11:32;;;;;;;48.58;23.60;;;;;;;2.85;85.74;99591.31;1646465;85;25818;-57
2022/10/12 06:13:58;;;;;;;37.90;20.52;;;;;;;2.89;85.90;99591.12;1646119;87;25650;-58
2022/10/12 06:16:25;;;;;;;41.05;22.40;;;;;;;2.97;85.81;99596.69;1646073;87;27442;-58
2022/10/12 06:18:51;;;;;;;36.10;21.10;;;;;;;2.99;85.90;99600.80;1646323;87;25680;-62
2022/10/12 06:21:17;;;;;;;35.25;21.07;;;;;;;3.07;86.38;99607.72;1646102;87;25477;-59
2022/10/12 06:23:44;;;;;;;33.70;18.27;;;;;;;3.18;86.06;99607.40;1646236;85;25793;-61
2022/10/12 06:26:10;;;;;;;36.45;20.20;;;;;;;3.21;85.88;99606.92;1646248;87;25476;-60
2022/10/12 06:28:37;;;;;;;39.50;22.07;;;;;;;3.27;86.12;99607.83;1646204;87;27648;-59
2022/10/12 06:31:03;;;;;;;47.62;22.80;;;;;;;3.47;86.43;99608.75;1646381;87;25670;-57
2022/10/12 06:33:30;;;;;;;40.35;22.27;;;;;;;3.64;85.94;99606.61;1646666;85;25442;-62
2022/10/12 06:35:56;;;;;;;42.50;20.37;;;;;;;3.81;85.71;99607.16;1646510;85;25905;-58
2022/10/12 06:38:23;;;;;;;35.28;18.20;;;;;;;3.88;85.04;99602.39;1646300;87;25739;-58
2022/10/12 06:40:51;;;;;;;37.30;19.85;;;;;;;3.86;84.97;99610.77;1646054;85;27482;-58
2022/10/12 06:43:17;;;;;;;35.45;19.52;;;;;;;3.88;85.45;99605.93;1646033;85;25723;-57
2022/10/12 06:45:44;;;;;;;36.88;21.12;;;;;;;3.88;85.31;99604.58;1646072;87;25513;-57
2022/10/12 06:48:10;;;;;;;35.50;19.75;;;;;;;3.87;85.32;99605.66;1646378;85;25823;-58
2022/10/12 06:50:37;;;;;;;38.02;21.75;;;;;;;3.88;85.55;99605.93;1646265;87;25626;-58
2022/10/12 06:53:03;;;;;;;39.92;21.75;;;;;;;3.94;85.87;99604.12;1646383;87;27604;-58
2022/10/12 06:55:30;;;;;;;34.78;20.05;;;;;;;4.08;86.07;99602.42;1646066;87;26081;-58
2022/10/12 06:57:56;;;;;;;40.08;21.80;;;;;;;4.22;85.75;99606.98;1646051;87;25643;-58
2022/10/12 07:00:22;;;;;;;40.83;21.75;;;;;;;4.34;85.37;99608.25;1646305;87;25724;-57
2022/10/12 07:02:50;;;;;;;41.55;22.32;;;;;;;4.48;85.98;99616.34;1646479;87;25703;-57
2022/10/12 07:05:19;;;;;;;37.85;20.77;;;;;;;4.66;85.34;99610.89;1646141;85;27473;-58
2022/10/12 07:07:46;;;;;;;36.03;17.55;;;;;;;4.69;85.03;99602.23;1646384;86;25660;-58
2022/10/12 07:10:12;;;;;;;36.35;20.27;;;;;;;4.73;85.25;99610.98;1646117;87;25710;-59
2022/10/12 07:12:39;;;;;;;29.05;15.20;;;;;;;4.75;85.06;99614.81;1646127;87;25735;-58
2022/10/12 07:15:07;;;;;;;27.15;15.95;;;;;;;4.79;85.17;99607.80;1646183;87;25715;-58
2022/10/12 07:17:33;;;;;;;34.53;19.45;;;;;;;4.79;84.96;99609.68;1646321;87;28404;-59
2022/10/12 07:20:00;;;;;;;36.15;19.10;;;;;;;4.82;85.42;99612.73;1645950;87;25710;-58
2022/10/12 07:22:27;;;;;;;39.08;21.10;;;;;;;4.89;85.03;99616.59;1646407;85;25461;-59
2022/10/12 07:24:53;;;;;;;39.10;21.70;;;;;;;5.06;85.60;99615.19;1646157;87;26046;-58
2022/10/12 07:27:20;;;;;;;44.80;22.27;;;;;;;5.26;84.92;99609.17;1646037;87;25505;-59
2022/10/12 07:29:47;;;;;;;47.05;25.62;;;;;;;5.43;84.68;99616.41;1646030;87;27452;-58
2022/10/12 07:32:13;;;;;;;39.85;21.40;;;;;;;5.61;84.48;99607.08;1646023;87;25691;-58
2022/10/12 07:34:40;;;;;;;49.15;24.75;;;;;;;5.79;83.94;99607.80;1646184;85;25537;-59
2022/10/12 07:37:07;;;;;;;47.43;24.18;;;;;;;5.94;83.72;99607.11;1646021;85;25728;-59
2022/10/12 07:39:33;;;;;;;50.03;25.40;;;;;;;6.11;83.11;99610.26;1646077;87;25465;-58
2022/10/12 07:41:59;;;;;;;45.78;25.92;;;;;;;6.26;83.10;99610.38;1644365;87;27466;-59
2022/10/12 07:44:26;;;;;;;58.40;28.47;;;;;;;6.55;83.52;99607.83;1644057;87;25640;-58
2022/10/12 07:46:53;;;;;;;47.55;26.00;;;;;;;6.85;82.34;99616.44;1646349;87;25509;-58
2022/10/12 07:49:19;;;;;;;48.98;25.65;;;;;;;7.14;81.72;99606.48;1646210;85;25793;-58
2022/10/12 07:51:46;;;;;;;49.63;25.52;;;;;;;7.44;81.09;99615.00;1646065;87;25647;-62
2022/10/12 07:54:14;;;;;;;47.93;25.00;;;;;;;7.85;82.13;99612.34;1646139;85;27476;-59
2022/10/12 07:56:40;;;;;;;45.55;22.77;;;;;;;8.39;80.26;99614.78;1645926;87;25628;-58
2022/10/12 07:59:08;;;;;;;37.53;21.77;;;;;;;8.68;78.95;99607.38;1646165;85;25528;-59
2022/10/12 08:01:50;;;;;;;49.18;23.67;;;;;;;8.84;78.14;99609.50;1646285;87;25852;-59
2022/10/12 08:04:09;;;;;;;59.70;30.37;;;;;;;9.37;79.84;99608.19;1642824;87;25627;-58
2022/10/12 08:06:35;;;;;;;64.60;32.60;;;;;;;9.88;76.28;99601.28;1646006;87;27452;-59
2022/10/12 08:09:03;;;;;;;67.90;34.10;;;;;;;10.17;76.02;99604.61;1645911;87;25510;-62
2022/10/12 08:11:30;;;;;;;60.08;32.08;;;;;;;10.52;75.76;99605.41;1663098;85;25489;-58
2022/10/12 08:13:56;;;;;;;71.00;33.33;;;;;;;10.86;75.20;99613.27;1672539;85;25723;-59
2022/10/12 08:16:24;;;;;;;97.47;40.15;;;;;;;11.24;74.40;99613.06;1669553;85;25479;-58
2022/10/12 08:18:50;;;;;;;114.28;46.05;;;;;;;11.59;72.56;99604.08;1663510;86;27493;-58
2022/10/12 08:21:17;;;;;;;122.35;48.00;;;;;;;11.78;71.23;99606.80;1663207;86;25445;-58
2022/10/12 08:23:45;;;;;;;71.70;35.33;;;;;;;11.98;71.20;99613.11;1663128;86;25634;-60
2022/10/12 08:26:13;;;;;;;82.80;38.30;;;;;;;12.18;69.90;99613.91;1663148;86;25721;-61
2022/10/12 08:28:40;;;;;;;92.12;40.65;;;;;;;12.80;71.44;99611.95;1663151;86;25686;-59
2022/10/12 08:31:16;;;;;;;62.90;33.90;;;;;;;13.42;70.53;99608.49;1663225;86;29457;-59
2022/10/12 08:33:43;;;;;;;192.07;68.62;;;;;;;13.42;70.53;99608.49;1663452;86;25847;-59
2022/10/12 08:36:12;;;;;;;69.03;35.85;;;;;;;13.97;66.27;99607.25;1663147;86;25713;-59
2022/10/12 08:38:38;;;;;;;45.10;27.45;;;;;;;14.16;66.82;99598.22;1659563;86;26135;-60
2022/10/12 08:41:22;;;;;;;49.15;28.77;;;;;;;14.75;67.49;99606.06;1663522;86;25485;-58
2022/10/12 08:44:00;;;;;;;44.42;26.60;;;;;;;15.16;65.10;99604.11;1663721;85;27368;-60
2022/10/12 08:46:28;;;;;;;47.73;29.02;;;;;;;15.34;64.60;99603.33;1662858;84;25512;-59
2022/10/12 08:49:21;;;;;;;43.15;26.68;;;;;;;15.88;65.35;99607.72;1663387;86;25702;-59
2022/10/12 08:51:57;;;;;;;110.03;47.00;;;;;;;16.57;64.67;99605.17;1663133;86;25817;-59
2022/10/12 08:54:28;;;;;;;41.05;26.05;;;;;;;17.29;63.68;99603.70;1663729;86;25657;-59
2022/10/12 08:56:56;;;;;;;47.65;29.67;;;;;;;17.75;60.33;99601.08;1662872;85;27437;-59
2022/10/12 08:59:24;;;;;;;37.05;25.23;;;;;;;18.05;57.59;99602.34;1663324;86;25629;-59
2022/10/12 09:02:45;;;;;;;33.23;23.75;;;;;;;18.13;58.47;99592.34;1663588;86;25665;-59
2022/10/12 09:05:17;;;;;;;;;;;;;;;18.39;58.14;99597.41;1656198;86;25901;-58
2022/10/12 09:08:01;;;;;;;33.90;23.65;;;;;;;18.68;57.70;99592.79;1651896;86;25693;-58
2022/10/12 09:10:36;;;;;;;30.25;23.20;;;;;;;19.03;57.30;99593.72;1653091;86;27628;-59
2022/10/12 09:13:46;;;;;;;35.05;25.80;;;;;;;19.20;54.52;99591.08;1648415;86;25840;-58
2022/10/12 09:16:20;;;;;;;23.87;18.02;;;;;;;19.39;54.21;99587.68;1649704;87;25507;-58
2022/10/12 09:19:04;;;;;;;30.23;19.67;;;;;;;19.23;50.10;99586.22;1649178;86;25740;-59
2022/10/12 09:21:31;;;;;;;43.78;27.10;;;;;;;18.98;51.11;99577.88;1648973;87;25554;-57
2022/10/12 09:23:58;;;;;;;33.80;21.37;;;;;;;19.27;53.14;99582.39;1649547;87;27616;-58
2022/10/12 09:26:38;;;;;;;16.82;11.70;;;;;;;20.01;49.76;99580.53;1649236;86;25484;-57
2022/10/12 09:29:32;;;;;;;18.20;11.90;;;;;;;20.38;48.52;99578.12;1649756;86;25627;-58
2022/10/12 09:32:22;;;;;;;16.35;12.93;;;;;;;20.59;49.11;99570.11;1647878;86;26546;-59
2022/10/12 09:34:49;;;;;;;18.60;13.32;;;;;;;20.82;46.97;99572.24;1649469;87;25761;-58
2022/10/12 09:37:22;;;;;;;18.40;12.40;;;;;;;21.15;48.23;99578.00;1649572;86;27490;-58
2022/10/12 09:39:49;;;;;;;17.00;11.83;;;;;;;21.53;46.55;99583.20;1645315;86;25690;-62
2022/10/12 09:42:22;;;;;;;15.83;11.15;;;;;;;21.93;46.32;99571.45;1658980;85;25693;-62
2022/10/12 09:44:58;;;;;;;15.00;9.55;;;;;;;22.30;45.93;99568.75;1651921;86;25705;-58
2022/10/12 09:47:33;;;;;;;8.68;6.08;;;;;;;22.82;42.94;99572.63;1621792;87;25614;-58
2022/10/12 09:50:04;;;;;;;10.18;7.08;;;;;;;22.17;40.33;99578.69;1610507;88;28299;-58
2022/10/12 09:52:40;;;;;;;7.80;5.08;;;;;;;22.11;40.57;99570.43;1661149;85;26532;-62
2022/10/12 09:55:23;;;;;;;8.53;4.17;;;;;;;21.77;40.29;99568.77;1623478;88;25448;-58
2022/10/12 09:57:57;;;;;;;6.10;3.60;;;;;;;21.59;39.61;99563.61;1617642;87;25759;-61
2022/10/12 10:00:28;;;;;;;5.25;3.83;;;;;;;20.90;39.08;99568.47;1621934;88;25523;-61
2022/10/12 10:02:55;;;;;;;6.97;3.83;;;;;;;20.44;39.52;99562.77;1622358;88;27442;-60
2022/10/12 10:05:30;;;;;;;7.15;4.20;;;;;;;20.39;40.10;99565.84;1621883;88;25519;-60
2022/10/12 10:08:19;;;;;;;7.05;4.17;;;;;;;20.68;39.23;99571.31;1622063;88;25470;-58
2022/10/12 10:10:50;;;;;;;5.80;4.08;;;;;;;20.55;40.63;99566.41;1668180;83;26544;-57
2022/10/12 10:13:17;;;;;;;6.00;3.27;;;;;;;20.78;39.27;99569.36;1697815;84;25413;-58
2022/10/12 10:15:47;;;;;;;5.58;3.22;;;;;;;20.75;39.10;99559.55;1693373;84;28342;-58
2022/10/12 10:18:22;;;;;;;;;;;;;;;20.77;39.28;99558.58;1696033;84;25664;-58
2022/10/12 10:20:58;;;;;;;8.50;3.30;;;;;;;20.41;37.94;99564.09;1693135;84;25591;-58
2022/10/12 10:23:35;;;;;;;3.92;2.80;;;;;;;20.20;38.72;99561.56;1692882;84;25787;-58
2022/10/12 10:26:09;;;;;;;6.80;3.58;;;;;;;20.31;38.09;99559.84;1689383;84;25543;-61
2022/10/12 10:28:39;;;;;;;5.05;3.15;;;;;;;20.34;38.29;99557.74;1693207;84;27605;-59
2022/10/12 10:31:16;;;;;;;;;;;;;;;20.36;38.02;99560.98;1695706;84;25828;-60
2022/10/12 10:33:43;;;;;;;4.30;3.02;;;;;;;20.36;37.95;99552.64;1693070;84;25668;-61
2022/10/12 10:36:25;;;;;;;5.72;3.08;;;;;;;20.78;37.88;99556.04;1689237;84;25791;-60
2022/10/12 10:39:01;;;;;;;7.05;3.90;;;;;;;21.31;37.84;99561.25;1693297;84;25628;-61
2022/10/12 10:41:33;;;;;;;6.08;3.22;;;;;;;21.65;38.34;99560.73;1693186;84;27584;-59
2022/10/12 10:43:59;;;;;;;5.37;2.98;;;;;;;22.39;36.29;99555.96;1693347;84;25761;-60
2022/10/12 10:46:29;;;;;;;6.00;3.25;;;;;;;22.95;36.02;99549.48;1693294;84;25680;-61
2022/10/12 10:49:00;;;;;;;5.53;3.35;;;;;;;23.24;34.35;99551.28;1693420;84;25674;-58
2022/10/12 10:51:48;;;;;;;7.25;4.60;;;;;;;23.39;35.62;99557.90;1692983;84;25669;-59
2022/10/12 10:54:25;;;;;;;8.90;3.15;;;;;;;23.84;34.47;99555.03;1693266;84;27471;-58
2022/10/12 10:57:11;;;;;;;6.83;3.20;;;;;;;24.15;34.47;99557.98;1684602;84;25831;-58
2022/10/12 10:59:52;;;;;;;4.72;2.87;;;;;;;24.39;32.87;99555.81;1693209;84;25535;-60
2022/10/12 11:02:39;;;;;;;3.47;2.20;;;;;;;23.53;32.63;99551.69;1692704;84;26473;-58
2022/10/12 11:05:29;;;;;;;5.58;2.50;;;;;;;22.71;33.10;99549.31;1692866;84;25623;-62
2022/10/12 11:08:02;;;;;;;4.37;2.08;;;;;;;21.82;33.54;99546.16;1692960;84;27335;-58
2022/10/12 11:10:46;;;;;;;4.90;1.77;;;;;;;20.95;34.54;99547.88;1693283;84;25638;-61
2022/10/12 11:13:42;;;;;;;3.95;2.00;;;;;;;20.59;35.02;99542.27;1660750;84;25505;-61
2022/10/12 11:16:32;;;;;;;3.72;2.20;;;;;;;20.31;35.21;99536.19;1657105;86;26114;-61
2022/10/12 11:19:31;;;;;;;3.22;2.22;;;;;;;20.08;35.75;99536.80;1649822;87;25514;-61
2022/10/12 11:22:03;;;;;;;4.72;2.60;;;;;;;19.84;36.86;99534.36;1649511;86;27404;-61
2022/10/12 11:24:37;;;;;;;5.35;2.83;;;;;;;20.31;35.89;99530.63;1649512;87;25685;-61
2022/10/12 11:27:14;;;;;;;4.40;2.55;;;;;;;20.78;34.74;99533.16;1648519;86;25647;-62
2022/10/12 11:29:41;;;;;;;4.12;2.50;;;;;;;21.00;34.65;99529.50;1649512;87;25709;-60
2022/10/12 11:32:28;;;;;;;3.98;2.27;;;;;;;21.12;35.59;99531.36;1646133;86;26163;-62
2022/10/12 11:34:58;;;;;;;4.83;2.40;;;;;;;21.01;34.88;99528.93;1649639;87;29574;-61
2022/10/12 11:37:45;;;;;;;5.83;2.40;;;;;;;21.05;33.79;99532.02;1649795;87;25454;-62
2022/10/12 11:40:19;;;;;;;3.47;1.77;;;;;;;20.75;34.83;99519.95;1649600;87;25468;-62
2022/10/12 11:42:49;;;;;;;4.30;2.08;;;;;;;20.68;34.31;99526.17;1580749;90;26427;-61
2022/10/12 11:45:23;;;;;;;4.90;2.85;;;;;;;20.50;34.65;99521.57;1581241;90;33149;-60
2022/10/12 11:48:00;;;;;;;5.62;2.50;;;;;;;20.42;34.71;99514.20;1580125;90;27414;-61